Penza, Russia
Current Conditions -  °F | °C
As of 6:00 PM on Sunday 21 Dec 2014 (Local Time) from UWSS Reporting Station
Broken Clouds Broken Clouds  
Wind Chill: 28°   Ceiling: 600
Heat Index: 34°   Visibility: 6mi
Dew Point: 32°   Wind: 7mph
Humidity: 93%   Direction: 240°WSW
Pressure: 29.83"   Gusts: NA
Location:  53.2°N, 45°E
Report Text: UWSS 211500Z 24003MPS 9999 BKN006 01/M00 Q1010 30350148 NOSIGRMK / QFE744
Loading
Personal Weather Stations






























Interactive Weather Map New forecast layout! Learn more

10-Day Weather Forecast

Advertisements
Track Severe Weather on mobile